createdAt,value
2018-11-26T00:00:34.752Z,90.30
2018-11-26T00:03:04.244Z,90.30
2018-11-26T00:05:33.471Z,90.40
2018-11-26T00:08:02.264Z,90.30
2018-11-26T00:10:42.135Z,90.10
2018-11-26T00:13:11.133Z,90.10
2018-11-26T00:15:40.468Z,90.10
2018-11-26T00:18:09.428Z,90.00
2018-11-26T00:20:38.034Z,90.00
2018-11-26T00:23:07.680Z,90.00
2018-11-26T00:25:36.692Z,90.00
2018-11-26T00:28:05.793Z,90.20
2018-11-26T00:30:34.464Z,90.30
2018-11-26T00:33:03.191Z,90.50
2018-11-26T00:35:31.952Z,90.70
2018-11-26T00:38:00.737Z,91.00
2018-11-26T00:40:30.107Z,90.70
2018-11-26T00:42:59.556Z,90.60
2018-11-26T00:45:28.275Z,90.80
2018-11-26T00:47:57.052Z,90.90
2018-11-26T00:50:25.634Z,90.90
2018-11-26T00:52:54.833Z,91.10
2018-11-26T00:55:23.593Z,91.30
2018-11-26T00:57:53.041Z,91.40
2018-11-26T01:00:21.894Z,91.10
2018-11-26T01:02:50.880Z,91.20
2018-11-26T01:05:33.574Z,91.20
2018-11-26T01:08:02.703Z,91.30
2018-11-26T01:10:32.015Z,91.30
2018-11-26T01:13:00.721Z,91.30
2018-11-26T01:15:29.666Z,91.40
2018-11-26T01:17:58.945Z,91.30
2018-11-26T01:20:27.531Z,91.20
2018-11-26T01:22:56.479Z,91.40
2018-11-26T01:25:25.124Z,91.40
2018-11-26T01:27:53.724Z,91.60
2018-11-26T01:30:22.466Z,91.20
2018-11-26T01:32:51.087Z,91.10
2018-11-26T01:35:20.388Z,91.00
2018-11-26T01:37:49.245Z,91.00
2018-11-26T01:40:21.888Z,91.00
2018-11-26T01:42:50.785Z,91.20
2018-11-26T01:45:19.541Z,91.10
2018-11-26T01:47:48.771Z,91.20
2018-11-26T01:50:17.661Z,91.00
2018-11-26T01:52:46.191Z,91.00
2018-11-26T01:55:14.791Z,90.70
2018-11-26T01:57:43.991Z,91.10
2018-11-26T02:00:20.719Z,90.90
2018-11-26T02:02:49.509Z,90.90
2018-11-26T02:05:18.472Z,90.80
2018-11-26T02:07:47.904Z,90.90
2018-11-26T02:10:17.700Z,90.90
2018-11-26T02:12:46.335Z,90.90
2018-11-26T02:15:39.709Z,91.10
2018-11-26T02:18:09.092Z,91.20
2018-11-26T02:20:38.465Z,90.90
2018-11-26T02:23:07.464Z,90.90
2018-11-26T02:25:36.189Z,90.90
2018-11-26T02:28:04.786Z,90.90
2018-11-26T02:30:33.582Z,90.90
2018-11-26T02:33:03.188Z,90.80
2018-11-26T02:35:32.782Z,90.90
2018-11-26T02:38:01.480Z,90.80
2018-11-26T02:40:31.719Z,90.80
2018-11-26T02:43:00.287Z,90.70
2018-11-26T02:45:29.729Z,90.70
2018-11-26T02:47:59.100Z,90.70
2018-11-26T02:50:28.135Z,90.60
2018-11-26T02:52:56.744Z,90.70
2018-11-26T02:55:26.054Z,90.40
2018-11-26T02:57:54.735Z,90.50
2018-11-26T03:00:24.019Z,90.60
2018-11-26T03:02:53.516Z,90.60
2018-11-26T03:05:31.362Z,90.60
2018-11-26T03:08:01.375Z,90.50
2018-11-26T03:10:30.279Z,90.60
2018-11-26T03:12:59.666Z,90.60
2018-11-26T03:15:28.317Z,90.70
2018-11-26T03:17:57.600Z,90.70
2018-11-26T03:20:26.846Z,90.80
2018-11-26T03:22:55.402Z,90.90
2018-11-26T03:25:24.232Z,91.00
2018-11-26T03:27:52.803Z,91.00
2018-11-26T03:30:23.254Z,91.10
2018-11-26T03:32:51.962Z,91.00
2018-11-26T03:35:20.730Z,91.00
2018-11-26T03:37:49.358Z,90.90
2018-11-26T03:40:18.689Z,90.70
2018-11-26T03:42:48.344Z,90.70
2018-11-26T03:45:18.319Z,90.60
2018-11-26T03:47:47.124Z,90.80
2018-11-26T03:50:16.917Z,90.70
2018-11-26T03:52:46.579Z,90.60
2018-11-26T03:55:15.186Z,90.70
2018-11-26T03:57:44.379Z,90.60
2018-11-26T04:00:14.266Z,91.00
2018-11-26T04:02:43.161Z,91.00
2018-11-26T04:05:12.238Z,91.20
2018-11-26T04:07:41.575Z,91.10
2018-11-26T04:10:11.414Z,91.00
2018-11-26T04:12:40.073Z,90.90
2018-11-26T04:15:11.387Z,90.80
2018-11-26T04:17:40.409Z,90.80
2018-11-26T04:20:09.577Z,90.60
2018-11-26T04:22:38.860Z,90.60
2018-11-26T04:25:08.649Z,90.70
2018-11-26T04:27:37.406Z,90.70
2018-11-26T04:30:08.472Z,90.90
2018-11-26T04:32:38.044Z,91.30
2018-11-26T04:35:07.513Z,91.30
2018-11-26T04:37:37.126Z,91.20
2018-11-26T04:40:08.553Z,91.40
2018-11-26T04:42:37.276Z,91.30
2018-11-26T04:45:07.405Z,91.30
2018-11-26T04:47:36.299Z,91.40
2018-11-26T04:50:07.766Z,91.60
2018-11-26T04:52:36.425Z,91.50
2018-11-26T04:55:05.159Z,91.50
2018-11-26T04:57:34.336Z,91.50
2018-11-26T05:00:03.083Z,91.30
2018-11-26T05:02:32.832Z,91.20
2018-11-26T05:05:02.104Z,91.20
2018-11-26T05:07:30.877Z,91.30
2018-11-26T05:09:59.581Z,91.50
2018-11-26T05:12:28.401Z,91.40
2018-11-26T05:14:57.466Z,91.30
2018-11-26T05:17:26.850Z,91.40
2018-11-26T05:19:56.158Z,91.40
2018-11-26T05:22:25.084Z,91.30
2018-11-26T05:24:54.638Z,91.50
2018-11-26T05:27:24.219Z,91.60
2018-11-26T05:29:53.580Z,91.50
2018-11-26T05:32:23.380Z,91.50
2018-11-26T05:34:52.955Z,91.50
2018-11-26T05:37:22.317Z,91.70
2018-11-26T05:39:52.083Z,91.40
2018-11-26T05:42:21.213Z,91.50
2018-11-26T05:44:49.933Z,91.40
2018-11-26T05:47:18.574Z,91.20
2018-11-26T05:49:48.109Z,91.30
2018-11-26T05:52:23.895Z,91.20
2018-11-26T05:54:53.612Z,91.20
2018-11-26T05:57:22.245Z,91.30
2018-11-26T05:59:51.247Z,91.20
2018-11-26T06:02:19.987Z,91.00
2018-11-26T06:04:49.284Z,91.20
2018-11-26T06:07:18.533Z,91.30
2018-11-26T06:09:47.402Z,91.20
2018-11-26T06:12:16.140Z,91.30
2018-11-26T06:14:45.767Z,91.10
2018-11-26T06:17:15.202Z,91.00
2018-11-26T06:19:44.719Z,91.20
2018-11-26T06:22:14.524Z,91.10
2018-11-26T06:24:43.909Z,91.00
2018-11-26T06:27:12.847Z,90.90
2018-11-26T06:29:41.814Z,90.70
2018-11-26T06:32:10.458Z,90.70
2018-11-26T06:34:42.500Z,90.80
2018-11-26T06:37:09.026Z,90.40
2018-11-26T06:39:38.158Z,90.50
2018-11-26T06:42:07.438Z,90.40
2018-11-26T06:44:36.246Z,90.20
2018-11-26T06:47:05.232Z,90.10
2018-11-26T06:49:34.336Z,90.10
2018-11-26T06:52:03.210Z,90.10
2018-11-26T06:54:32.068Z,90.10
2018-11-26T06:57:01.382Z,90.00
2018-11-26T06:59:30.390Z,90.20
2018-11-26T07:01:59.737Z,90.20
2018-11-26T07:04:28.447Z,90.30
2018-11-26T07:06:57.493Z,90.10
2018-11-26T07:09:27.198Z,90.00
2018-11-26T07:11:56.156Z,89.90
2018-11-26T07:14:25.061Z,90.00
2018-11-26T07:16:54.864Z,89.60
2018-11-26T07:19:23.943Z,88.40
2018-11-26T07:21:52.892Z,88.90
2018-11-26T07:24:21.812Z,88.90
2018-11-26T07:26:50.787Z,88.60
2018-11-26T07:29:24.296Z,89.00
2018-11-26T07:31:50.217Z,88.90
2018-11-26T07:34:19.365Z,88.80
2018-11-26T07:36:48.788Z,89.10
2018-11-26T07:39:24.321Z,89.00
2018-11-26T07:41:53.525Z,88.70
2018-11-26T07:44:22.417Z,88.80
2018-11-26T07:46:51.091Z,88.90
2018-11-26T07:49:20.355Z,89.10
2018-11-26T07:51:49.165Z,88.70
2018-11-26T07:54:17.993Z,88.60
2018-11-26T07:56:47.747Z,88.70
2018-11-26T07:59:17.223Z,88.90
2018-11-26T08:01:46.079Z,88.80
2018-11-26T08:04:14.811Z,88.70
2018-11-26T08:06:43.642Z,88.10
2018-11-26T08:09:13.173Z,88.40
2018-11-26T08:11:41.957Z,88.60
2018-11-26T08:14:11.288Z,88.70
2018-11-26T08:16:40.628Z,88.90
2018-11-26T08:19:09.632Z,88.60
2018-11-26T08:21:38.590Z,89.20
2018-11-26T08:24:07.419Z,88.60
2018-11-26T08:26:36.915Z,88.70
2018-11-26T08:29:06.393Z,88.40
2018-11-26T08:31:35.486Z,88.40
2018-11-26T08:34:04.463Z,88.40
2018-11-26T08:36:34.803Z,88.20
2018-11-26T08:39:09.568Z,88.30
2018-11-26T08:41:42.891Z,88.20
2018-11-26T08:44:12.442Z,88.00
2018-11-26T08:46:51.980Z,87.80
2018-11-26T08:49:26.051Z,87.40
2018-11-26T08:51:55.178Z,86.50
2018-11-26T08:54:23.841Z,87.10
2018-11-26T08:56:52.403Z,87.10
2018-11-26T08:59:21.253Z,87.20
2018-11-26T09:01:55.778Z,87.00
2018-11-26T09:04:29.751Z,86.60
2018-11-26T09:06:59.170Z,86.30
2018-11-26T09:09:32.755Z,85.80
2018-11-26T09:11:57.386Z,85.30
2018-11-26T09:14:26.755Z,85.20
2018-11-26T09:16:55.773Z,84.40
2018-11-26T09:19:24.982Z,84.40
2018-11-26T09:21:54.675Z,84.20
2018-11-26T09:24:24.129Z,83.70
2018-11-26T09:26:52.707Z,83.30
2018-11-26T09:29:22.395Z,83.70
2018-11-26T09:31:51.308Z,83.60
2018-11-26T09:34:20.218Z,83.90
2018-11-26T09:36:49.959Z,83.80
2018-11-26T09:39:18.688Z,83.90
2018-11-26T09:41:47.722Z,84.00
2018-11-26T09:44:16.490Z,82.90
2018-11-26T09:46:45.127Z,83.00
2018-11-26T09:49:13.816Z,81.60
2018-11-26T09:51:43.375Z,81.40
2018-11-26T09:54:12.634Z,82.50
2018-11-26T09:56:42.021Z,80.70
2018-11-26T09:59:11.214Z,80.80
2018-11-26T10:01:39.995Z,80.00
2018-11-26T10:04:08.825Z,79.40
2018-11-26T10:06:38.439Z,79.10
2018-11-26T10:09:11.010Z,78.70
2018-11-26T10:11:40.793Z,79.30
2018-11-26T10:14:09.793Z,79.80
2018-11-26T10:16:38.407Z,80.10
2018-11-26T10:19:07.657Z,79.50
2018-11-26T10:21:37.870Z,79.70
2018-11-26T10:24:07.254Z,79.40
2018-11-26T10:26:35.948Z,79.40
2018-11-26T10:29:04.968Z,79.40
2018-11-26T10:31:34.249Z,78.80
2018-11-26T10:34:03.055Z,78.80
2018-11-26T10:36:31.751Z,78.90
2018-11-26T10:39:01.125Z,78.20
2018-11-26T10:41:30.670Z,78.60
2018-11-26T10:44:00.331Z,78.80
2018-11-26T10:46:29.255Z,78.90
2018-11-26T10:48:58.650Z,79.40
2018-11-26T10:51:27.963Z,79.80
2018-11-26T10:53:56.632Z,79.50
2018-11-26T10:56:25.951Z,79.50
2018-11-26T10:58:54.651Z,79.00
2018-11-26T11:01:28.655Z,79.20
2018-11-26T11:03:57.356Z,79.50
2018-11-26T11:06:26.316Z,79.40
2018-11-26T11:08:54.883Z,79.20
2018-11-26T11:11:24.205Z,79.80
2018-11-26T11:13:52.986Z,80.50
2018-11-26T11:16:21.621Z,80.20
2018-11-26T11:18:50.829Z,79.80
2018-11-26T11:21:20.583Z,79.80
2018-11-26T11:23:50.153Z,79.60
2018-11-26T11:26:19.642Z,79.70
2018-11-26T11:28:48.951Z,80.20
2018-11-26T11:31:17.615Z,80.30
2018-11-26T11:33:46.902Z,80.50
2018-11-26T11:36:16.508Z,80.70
2018-11-26T11:38:45.993Z,80.80
2018-11-26T11:41:15.228Z,81.20
2018-11-26T11:43:44.299Z,81.10
2018-11-26T11:46:13.603Z,81.40
2018-11-26T11:48:43.027Z,81.00
2018-11-26T11:51:11.906Z,81.30
2018-11-26T11:53:41.691Z,81.30
2018-11-26T11:56:10.387Z,81.70
2018-11-26T11:58:39.802Z,82.30
2018-11-26T12:01:10.647Z,82.20
2018-11-26T12:03:37.665Z,82.00
2018-11-26T12:06:06.541Z,81.60
2018-11-26T12:08:36.187Z,81.30
2018-11-26T12:11:05.689Z,81.80
2018-11-26T12:13:34.497Z,81.90
2018-11-26T12:16:03.203Z,82.10
2018-11-26T12:18:32.734Z,82.70
2018-11-26T12:21:01.582Z,82.00
2018-11-26T12:23:31.032Z,82.20
2018-11-26T12:25:59.973Z,82.70
2018-11-26T12:28:28.631Z,83.10
2018-11-26T12:30:57.579Z,83.20
2018-11-26T12:33:26.512Z,82.40
2018-11-26T12:35:55.208Z,83.00
2018-11-26T12:38:23.836Z,83.00
2018-11-26T12:40:53.188Z,83.00
2018-11-26T12:43:22.290Z,82.40
2018-11-26T12:45:57.886Z,82.70
2018-11-26T12:48:26.701Z,82.90
2018-11-26T12:50:56.272Z,83.00
2018-11-26T12:53:25.618Z,82.80
2018-11-26T12:55:54.436Z,82.90
2018-11-26T12:58:23.898Z,82.60
2018-11-26T13:00:52.746Z,82.40
2018-11-26T13:03:21.697Z,82.60
2018-11-26T13:05:50.518Z,83.50
2018-11-26T13:08:19.709Z,83.00
2018-11-26T13:10:48.720Z,83.30
2018-11-26T13:13:17.588Z,83.50
2018-11-26T13:15:46.607Z,83.20
2018-11-26T13:18:16.176Z,83.00
2018-11-26T13:20:45.498Z,83.00
2018-11-26T13:23:15.471Z,82.50
2018-11-26T13:25:44.061Z,82.80
2018-11-26T13:28:13.457Z,83.30
2018-11-26T13:30:47.666Z,82.80
2018-11-26T13:33:17.594Z,82.90
2018-11-26T13:35:47.851Z,82.20
2018-11-26T13:38:16.905Z,82.40
2018-11-26T13:40:46.122Z,82.20
2018-11-26T13:43:16.687Z,82.30
2018-11-26T13:45:47.070Z,81.20
2018-11-26T13:48:17.548Z,81.00
2018-11-26T13:50:50.238Z,81.20
2018-11-26T13:53:18.884Z,81.10
2018-11-26T13:55:48.359Z,81.20
2018-11-26T13:58:17.924Z,80.80
2018-11-26T14:00:46.697Z,80.70
2018-11-26T14:03:15.941Z,81.50
2018-11-26T14:05:44.733Z,81.30
2018-11-26T14:08:13.425Z,81.50
2018-11-26T14:10:42.165Z,81.60
2018-11-26T14:13:13.059Z,81.70
2018-11-26T14:15:41.655Z,82.10
2018-11-26T14:18:10.822Z,82.10
2018-11-26T14:20:40.370Z,82.20
2018-11-26T14:23:09.573Z,82.30
2018-11-26T14:25:38.583Z,82.60
2018-11-26T14:28:07.362Z,82.90
2018-11-26T14:30:36.905Z,82.60
2018-11-26T14:33:07.182Z,83.50
2018-11-26T14:35:36.008Z,83.80
2018-11-26T14:38:09.448Z,83.80
2018-11-26T14:40:41.905Z,84.00
2018-11-26T14:43:11.395Z,84.10
2018-11-26T14:45:40.046Z,84.10
2018-11-26T14:48:08.875Z,84.00
2018-11-26T14:50:38.667Z,84.10
2018-11-26T14:53:08.707Z,84.10
2018-11-26T14:55:38.529Z,84.10
2018-11-26T14:58:07.735Z,84.20
2018-11-26T15:00:37.278Z,84.50
2018-11-26T15:03:06.895Z,84.40
2018-11-26T15:05:35.653Z,84.50
2018-11-26T15:08:05.518Z,84.40
2018-11-26T15:10:35.403Z,84.50
2018-11-26T15:13:04.023Z,84.90
2018-11-26T15:15:33.807Z,84.90
2018-11-26T15:18:03.069Z,84.80
2018-11-26T15:20:31.882Z,85.10
2018-11-26T15:23:01.404Z,85.10
2018-11-26T15:25:31.750Z,84.80
2018-11-26T15:28:04.200Z,85.10
2018-11-26T15:30:33.135Z,85.00
2018-11-26T15:33:02.065Z,84.80
2018-11-26T15:35:31.480Z,84.70
2018-11-26T15:38:00.384Z,84.70
2018-11-26T15:40:29.267Z,84.80
2018-11-26T15:42:59.596Z,84.60
2018-11-26T15:45:30.001Z,84.40
2018-11-26T15:48:01.468Z,84.30
2018-11-26T15:50:30.967Z,84.30
2018-11-26T15:53:06.734Z,84.50
2018-11-26T15:55:35.590Z,84.60
2018-11-26T15:58:04.374Z,84.60
2018-11-26T16:00:33.982Z,84.30
2018-11-26T16:03:02.758Z,84.50
2018-11-26T16:05:32.976Z,84.30
2018-11-26T16:08:13.615Z,84.20
2018-11-26T16:10:42.528Z,84.20
2018-11-26T16:13:13.200Z,84.20
2018-11-26T16:15:43.968Z,83.90
2018-11-26T16:18:17.828Z,83.90
2018-11-26T16:20:46.952Z,84.00
2018-11-26T16:23:22.385Z,84.00
2018-11-26T16:25:52.378Z,83.90
2018-11-26T16:28:24.047Z,83.90
2018-11-26T16:30:52.813Z,84.00
2018-11-26T16:33:22.535Z,84.10
2018-11-26T16:35:51.363Z,84.00
2018-11-26T16:38:20.491Z,84.10
2018-11-26T16:40:50.168Z,84.10
2018-11-26T16:43:19.661Z,84.40
2018-11-26T16:45:49.430Z,84.10
2018-11-26T16:48:18.435Z,83.80
2018-11-26T16:50:47.296Z,84.00
2018-11-26T16:53:19.329Z,84.00
2018-11-26T16:55:46.333Z,84.00
2018-11-26T16:58:15.166Z,84.00
2018-11-26T17:00:43.974Z,84.30
2018-11-26T17:03:13.276Z,83.90
2018-11-26T17:05:42.798Z,84.10
2018-11-26T17:08:12.955Z,83.70
2018-11-26T17:10:42.566Z,83.40
2018-11-26T17:13:12.612Z,83.70
2018-11-26T17:15:41.912Z,84.10
2018-11-26T17:18:10.765Z,84.20
2018-11-26T17:20:40.114Z,84.20
2018-11-26T17:23:09.190Z,84.20
2018-11-26T17:25:38.091Z,84.50
2018-11-26T17:28:07.416Z,84.90
2018-11-26T17:30:37.247Z,84.90
2018-11-26T17:33:07.478Z,84.90
2018-11-26T17:35:36.981Z,84.90
2018-11-26T17:38:06.748Z,84.70
2018-11-26T17:40:36.239Z,84.90
2018-11-26T17:43:05.584Z,84.60
2018-11-26T17:45:34.327Z,84.70
2018-11-26T17:48:03.219Z,84.50
2018-11-26T17:50:37.495Z,84.10
2018-11-26T17:53:08.404Z,84.40
2018-11-26T17:55:52.657Z,84.40
2018-11-26T17:58:22.865Z,84.50
2018-11-26T18:00:59.860Z,84.60
2018-11-26T18:03:29.624Z,84.70
2018-11-26T18:05:59.166Z,84.60
2018-11-26T18:08:28.413Z,84.60
2018-11-26T18:10:58.281Z,84.70
2018-11-26T18:13:27.627Z,84.70
2018-11-26T18:15:56.910Z,84.70
2018-11-26T18:18:27.093Z,85.00
2018-11-26T18:20:57.389Z,85.70
2018-11-26T18:23:26.828Z,85.60
2018-11-26T18:25:56.350Z,85.80
2018-11-26T18:28:25.353Z,86.00
2018-11-26T18:30:54.313Z,85.90
2018-11-26T18:33:24.124Z,86.00
2018-11-26T18:35:53.430Z,86.70
2018-11-26T18:38:22.961Z,86.40
2018-11-26T18:40:53.002Z,86.30
2018-11-26T18:43:22.289Z,86.70
2018-11-26T18:45:50.987Z,86.50
2018-11-26T18:48:19.756Z,86.40
2018-11-26T18:50:48.750Z,86.30
2018-11-26T18:53:18.372Z,86.20
2018-11-26T18:55:47.926Z,86.00
2018-11-26T18:58:17.073Z,85.90
2018-11-26T19:00:52.732Z,85.90
2018-11-26T19:03:22.812Z,85.90
2018-11-26T19:05:53.255Z,85.90
2018-11-26T19:08:22.217Z,86.30
2018-11-26T19:10:54.057Z,86.60
2018-11-26T19:13:26.416Z,86.60
2018-11-26T19:16:06.333Z,86.90
2018-11-26T19:18:35.630Z,87.00
2018-11-26T19:21:04.608Z,86.70
2018-11-26T19:23:34.392Z,86.70
2018-11-26T19:26:03.206Z,86.70
2018-11-26T19:28:32.013Z,86.80
2018-11-26T19:31:00.674Z,86.90
2018-11-26T19:33:29.752Z,86.90
2018-11-26T19:35:59.228Z,86.80
2018-11-26T19:38:28.924Z,86.80
2018-11-26T19:40:58.277Z,86.70
2018-11-26T19:43:27.859Z,87.10
2018-11-26T19:45:57.634Z,87.70
2018-11-26T19:48:26.962Z,87.80
2018-11-26T19:50:56.544Z,88.20
2018-11-26T19:53:25.637Z,88.20
2018-11-26T19:55:54.589Z,89.00
2018-11-26T19:58:24.029Z,89.60
2018-11-26T20:00:53.366Z,89.50
2018-11-26T20:03:28.029Z,90.00
2018-11-26T20:06:04.526Z,90.00
2018-11-26T20:08:33.805Z,90.40
2018-11-26T20:11:03.477Z,90.60
2018-11-26T20:13:33.141Z,90.60
2018-11-26T20:16:02.472Z,90.50
2018-11-26T20:18:31.198Z,90.50
2018-11-26T20:21:00.189Z,90.60
2018-11-26T20:23:29.816Z,90.70
2018-11-26T20:25:59.328Z,90.80
2018-11-26T20:28:29.046Z,90.90
2018-11-26T20:30:58.582Z,91.00
2018-11-26T20:33:28.022Z,91.10
2018-11-26T20:35:57.145Z,91.10
2018-11-26T20:38:26.015Z,91.10
2018-11-26T20:40:55.773Z,91.20
2018-11-26T20:43:24.756Z,91.40
2018-11-26T20:45:54.801Z,91.70
2018-11-26T20:48:23.974Z,91.90
2018-11-26T20:50:53.722Z,91.60
2018-11-26T20:53:25.535Z,91.50
2018-11-26T20:55:55.365Z,91.70
2018-11-26T20:58:24.325Z,91.60
2018-11-26T21:00:53.838Z,91.50
2018-11-26T21:03:23.255Z,91.40
2018-11-26T21:05:53.366Z,91.20
2018-11-26T21:08:23.459Z,91.20
2018-11-26T21:10:52.625Z,91.30
2018-11-26T21:13:22.345Z,91.20
2018-11-26T21:15:51.813Z,91.00
2018-11-26T21:18:20.713Z,91.00
2018-11-26T21:20:51.220Z,91.00
2018-11-26T21:23:21.783Z,91.20
2018-11-26T21:25:51.453Z,91.30
2018-11-26T21:28:20.579Z,91.30
2018-11-26T21:30:52.007Z,91.30
2018-11-26T21:33:18.640Z,91.40
2018-11-26T21:35:48.465Z,91.60
2018-11-26T21:38:17.843Z,91.50
2018-11-26T21:40:46.967Z,91.60
2018-11-26T21:43:15.949Z,91.80
2018-11-26T21:45:48.516Z,91.80
2018-11-26T21:48:23.875Z,92.00
2018-11-26T21:50:52.679Z,92.10
2018-11-26T21:53:21.860Z,92.10
2018-11-26T21:55:51.113Z,92.00
2018-11-26T21:58:20.101Z,92.10
2018-11-26T22:00:50.424Z,92.20
2018-11-26T22:03:19.122Z,92.10
2018-11-26T22:05:48.559Z,92.20
2018-11-26T22:08:18.365Z,92.30
2018-11-26T22:10:47.826Z,92.20
2018-11-26T22:13:18.574Z,92.20
2018-11-26T22:15:47.423Z,92.20
2018-11-26T22:18:16.313Z,92.30
2018-11-26T22:20:45.386Z,92.40
2018-11-26T22:23:14.389Z,92.10
2018-11-26T22:25:43.696Z,92.00
2018-11-26T22:28:12.440Z,92.10
2018-11-26T22:30:41.915Z,92.10
2018-11-26T22:33:10.883Z,92.30
2018-11-26T22:35:40.106Z,92.40
2018-11-26T22:38:09.782Z,92.30
2018-11-26T22:40:39.359Z,92.40
2018-11-26T22:43:08.929Z,92.50
2018-11-26T22:45:38.355Z,92.20
2018-11-26T22:48:11.040Z,92.00
2018-11-26T22:50:41.356Z,91.90
2018-11-26T22:53:10.970Z,92.00
2018-11-26T22:55:40.552Z,91.70
2018-11-26T22:58:10.963Z,92.00
2018-11-26T23:00:43.690Z,92.30
2018-11-26T23:03:17.008Z,92.30
2018-11-26T23:05:46.489Z,92.30
2018-11-26T23:08:16.088Z,92.20
2018-11-26T23:10:45.608Z,92.10
2018-11-26T23:13:15.190Z,92.10
2018-11-26T23:15:44.791Z,92.20
2018-11-26T23:18:14.233Z,92.40
2018-11-26T23:20:43.049Z,92.20
2018-11-26T23:23:12.214Z,92.30
2018-11-26T23:25:40.797Z,92.20
2018-11-26T23:28:10.637Z,92.00
2018-11-26T23:30:40.107Z,92.00
2018-11-26T23:33:10.026Z,92.10
2018-11-26T23:35:39.391Z,92.00
2018-11-26T23:38:08.200Z,91.80
2018-11-26T23:40:36.964Z,92.00
2018-11-26T23:43:06.607Z,92.00
2018-11-26T23:45:35.480Z,92.00
2018-11-26T23:48:04.903Z,91.80
2018-11-26T23:50:34.401Z,92.00
2018-11-26T23:53:05.214Z,92.30
2018-11-26T23:55:33.833Z,92.20
2018-11-26T23:58:02.723Z,92.20
